Strona główna
METAR-TAF:

METAR-TAF

Lotnisko :

Harrisburg, Pensylwania, Stany Zjednoczone

Szerokość geograficzna: 40-13-02N, Długość geograficzna: 076-51-05W, wysokość: 106 m

Aktualna obserwacja pogody

Raport powstał 22 minut temu, godzina 08:56 UTC
Wiatr 3 kt od południowy wschód
Temperatura -3°C
Wilgotność 74%
Ciśnienie 1033 hPa
Widzialność: 16.1 km
bezchmurnie

METAR: KCXY 080856Z AUTO 13003KT 10SM CLR M03/M07 A3049 RMK AO2 SLP331 T10331072 50002

czas: 04:18 (09:18 UTC)


TAF: brakujący

Obserwacja i prognoza pogody dla ponad 4000 lotnisk (raport METAR i TAF).

Dostępne stacje oznaczono żółtymi i czerwonymi punktami na mapie.

Najedź kursorem aby zobaczyć nazwę stacji.

Kliknij aby zobaczyć obserwacje i prognozy pogody.

Aby zmienić mapę: kliknij na zielony przycisk z czarnym krzyżykiem, aby powiększyć; na zielony przycisk z myślnikiem, aby pomniejszyć; na zielone strzałki, aby przejść do map sąsiednich.


METAR-TAF: